Emlyn, Kentucky
Current Conditions -  °F | °C
As of 5:35 PM on Monday 22 Dec 2014 (Local Time) from K1A6 Reporting Station
Overcast Overcast  
Wind Chill: 53°   Ceiling: 6500
Heat Index: 53°   Visibility: 10mi
Dew Point: 47°   Wind: 0mph
Humidity: 80%   Direction: NA
Pressure: 29.85"   Gusts: NA
Location:  36.7°N, 84.14°W
Report Text: K1A6 222235Z AUTO 00000KT 10SM BKN065 OVC085 12/08 A2985 RMK AO2 T01160083
Loading
Personal Weather Stations






























Interactive Weather Map New forecast layout! Learn more

10-Day Weather Forecast

Advertisements
Track Severe Weather on mobile